createdAt,value
2023-11-07T00:01:44.682Z,6.30
2023-11-07T00:04:13.746Z,6.23
2023-11-07T00:06:43.781Z,6.15
2023-11-07T00:09:13.488Z,6.08
2023-11-07T00:11:41.999Z,6.01
2023-11-07T00:14:10.482Z,5.91
2023-11-07T00:16:38.962Z,5.78
2023-11-07T00:19:08.842Z,5.60
2023-11-07T00:21:38.238Z,5.43
2023-11-07T00:24:09.482Z,5.21
2023-11-07T00:26:38.259Z,5.07
2023-11-07T00:29:07.921Z,4.92
2023-11-07T00:31:36.535Z,4.76
2023-11-07T00:34:05.648Z,4.62
2023-11-07T00:36:34.512Z,4.53
2023-11-07T00:39:03.376Z,4.44
2023-11-07T00:41:33.577Z,4.38
2023-11-07T00:44:03.117Z,4.40
2023-11-07T00:46:31.600Z,4.27
2023-11-07T00:49:00.529Z,4.12
2023-11-07T00:51:29.114Z,4.13
2023-11-07T00:53:57.572Z,4.14
2023-11-07T00:56:26.219Z,4.22
2023-11-07T00:58:56.073Z,4.26
2023-11-07T01:01:24.613Z,4.43
2023-11-07T01:03:53.264Z,4.56
2023-11-07T01:06:22.275Z,4.63
2023-11-07T01:08:50.735Z,4.75
2023-11-07T01:11:20.822Z,4.83
2023-11-07T01:13:49.583Z,4.83
2023-11-07T01:16:19.765Z,4.81
2023-11-07T01:18:48.784Z,4.80
2023-11-07T01:21:17.450Z,4.79
2023-11-07T01:23:45.958Z,4.75
2023-11-07T01:26:14.378Z,4.68
2023-11-07T01:28:43.608Z,4.61
2023-11-07T01:31:12.157Z,4.58
2023-11-07T01:33:42.472Z,4.46
2023-11-07T01:36:12.493Z,4.26
2023-11-07T01:38:40.980Z,4.17
2023-11-07T01:41:09.552Z,3.99
2023-11-07T01:43:38.096Z,3.95
2023-11-07T01:46:07.998Z,3.85
2023-11-07T01:48:37.633Z,3.73
2023-11-07T01:51:10.618Z,3.60
2023-11-07T01:53:39.212Z,3.54
2023-11-07T01:56:09.579Z,3.45
2023-11-07T01:58:38.980Z,3.41
2023-11-07T02:01:07.671Z,3.40
2023-11-07T02:03:38.174Z,3.36
2023-11-07T02:06:09.747Z,3.38
2023-11-07T02:08:38.841Z,3.47
2023-11-07T02:11:07.781Z,3.41
2023-11-07T02:13:38.025Z,3.29
2023-11-07T02:16:07.698Z,3.21
2023-11-07T02:18:36.312Z,3.11
2023-11-07T02:21:05.218Z,3.04
2023-11-07T02:23:35.778Z,2.97
2023-11-07T02:26:04.585Z,2.90
2023-11-07T02:28:33.742Z,2.89
2023-11-07T02:31:02.172Z,2.85
2023-11-07T02:33:31.238Z,2.81
2023-11-07T02:36:00.287Z,2.74
2023-11-07T02:38:30.322Z,2.71
2023-11-07T02:41:00.363Z,2.62
2023-11-07T02:43:29.213Z,2.57
2023-11-07T02:45:57.757Z,2.54
2023-11-07T02:48:26.248Z,2.57
2023-11-07T02:50:54.962Z,2.61
2023-11-07T02:53:23.886Z,2.57
2023-11-07T02:55:53.442Z,2.58
2023-11-07T02:58:25.216Z,2.52
2023-11-07T03:00:53.827Z,2.45
2023-11-07T03:03:22.808Z,2.44
2023-11-07T03:05:51.318Z,2.43
2023-11-07T03:08:20.063Z,2.44
2023-11-07T03:10:48.435Z,2.32
2023-11-07T03:13:19.374Z,2.23
2023-11-07T03:15:49.361Z,2.20
2023-11-07T03:18:18.044Z,2.16
2023-11-07T03:20:46.744Z,2.16
2023-11-07T03:23:15.168Z,2.20
2023-11-07T03:25:43.562Z,2.21
2023-11-07T03:28:12.993Z,2.27
2023-11-07T03:30:42.527Z,2.25
2023-11-07T03:33:12.465Z,2.28
2023-11-07T03:35:40.968Z,2.19
2023-11-07T03:38:09.427Z,2.21
2023-11-07T03:40:37.960Z,2.19
2023-11-07T03:43:06.882Z,2.14
2023-11-07T03:45:35.299Z,2.07
2023-11-07T03:48:03.858Z,1.98
2023-11-07T03:50:33.794Z,2.00
2023-11-07T03:53:02.182Z,2.00
2023-11-07T03:55:30.565Z,1.92
2023-11-07T03:57:58.941Z,1.85
2023-11-07T04:00:27.318Z,1.82
2023-11-07T04:02:55.999Z,1.85
2023-11-07T04:05:24.618Z,1.88
2023-11-07T04:07:54.396Z,1.85
2023-11-07T04:10:22.981Z,1.85
2023-11-07T04:12:52.097Z,1.86
2023-11-07T04:15:23.671Z,1.83
2023-11-07T04:17:53.949Z,1.82
2023-11-07T04:20:24.237Z,1.79
2023-11-07T04:22:55.652Z,1.80
2023-11-07T04:25:24.094Z,1.77
2023-11-07T04:27:53.053Z,1.81
2023-11-07T04:30:21.667Z,1.76
2023-11-07T04:32:50.161Z,1.74
2023-11-07T04:35:18.769Z,1.65
2023-11-07T04:37:47.276Z,1.55
2023-11-07T04:40:20.280Z,1.58
2023-11-07T04:42:49.067Z,1.58
2023-11-07T04:45:20.445Z,1.64
2023-11-07T04:47:50.663Z,1.59
2023-11-07T04:50:19.333Z,1.60
2023-11-07T04:52:48.498Z,1.53
2023-11-07T04:55:19.523Z,1.49
2023-11-07T04:57:47.855Z,1.45
2023-11-07T05:00:17.184Z,1.42
2023-11-07T05:02:47.279Z,1.37
2023-11-07T05:05:15.889Z,1.34
2023-11-07T05:07:46.410Z,1.39
2023-11-07T05:10:15.545Z,1.45
2023-11-07T05:12:45.344Z,1.64
2023-11-07T05:15:14.082Z,1.80
2023-11-07T05:17:42.663Z,1.90
2023-11-07T05:20:15.130Z,2.05
2023-11-07T05:22:43.924Z,2.16
2023-11-07T05:25:12.994Z,2.29
2023-11-07T05:27:41.922Z,2.45
2023-11-07T05:30:15.659Z,2.54
2023-11-07T05:32:48.191Z,2.66
2023-11-07T05:35:16.839Z,2.65
2023-11-07T05:37:47.127Z,2.69
2023-11-07T05:40:17.031Z,2.61
2023-11-07T05:42:45.660Z,2.55
2023-11-07T05:45:16.297Z,2.59
2023-11-07T05:47:45.647Z,2.68
2023-11-07T05:50:14.320Z,2.67
2023-11-07T05:52:42.951Z,2.65
2023-11-07T05:55:13.174Z,2.67
2023-11-07T05:57:41.825Z,2.71
2023-11-07T06:00:15.086Z,2.74
2023-11-07T06:02:44.966Z,2.66
2023-11-07T06:05:13.481Z,2.58
2023-11-07T06:07:41.932Z,2.51
2023-11-07T06:10:10.803Z,2.59
2023-11-07T06:12:39.613Z,2.71
2023-11-07T06:15:11.899Z,2.77
2023-11-07T06:17:40.385Z,2.83
2023-11-07T06:20:11.589Z,2.96
2023-11-07T06:22:39.976Z,2.97
2023-11-07T06:25:11.246Z,2.92
2023-11-07T06:27:39.588Z,2.85
2023-11-07T06:30:10.774Z,2.67
2023-11-07T06:32:40.186Z,2.55
2023-11-07T06:35:11.580Z,2.50
2023-11-07T06:37:40.696Z,2.43
2023-11-07T06:40:17.351Z,2.41
2023-11-07T06:42:48.239Z,2.37
2023-11-07T06:45:17.372Z,2.40
2023-11-07T06:47:47.839Z,2.48
2023-11-07T06:50:18.099Z,2.50
2023-11-07T06:52:53.314Z,2.53
2023-11-07T06:55:26.081Z,2.48
2023-11-07T06:57:56.699Z,2.41
2023-11-07T07:00:27.393Z,2.43
2023-11-07T07:02:58.444Z,2.49
2023-11-07T07:05:29.392Z,2.51
2023-11-07T07:07:59.228Z,2.59
2023-11-07T07:10:27.612Z,2.66
2023-11-07T07:12:56.106Z,2.81
2023-11-07T07:15:25.119Z,2.87
2023-11-07T07:17:53.804Z,2.96
2023-11-07T07:20:22.384Z,3.02
2023-11-07T07:22:54.311Z,3.03
2023-11-07T07:25:28.166Z,3.12
2023-11-07T07:27:56.848Z,3.10
2023-11-07T07:30:27.692Z,3.16
2023-11-07T07:32:57.078Z,3.27
2023-11-07T07:35:30.792Z,3.39
2023-11-07T07:38:04.406Z,3.49
2023-11-07T07:40:33.522Z,3.63
2023-11-07T07:43:10.914Z,3.71
2023-11-07T07:45:44.034Z,3.77
2023-11-07T07:48:13.251Z,3.78
2023-11-07T07:50:44.200Z,3.77
2023-11-07T07:53:16.364Z,3.76
2023-11-07T07:55:45.885Z,3.76
2023-11-07T07:58:20.362Z,3.78
2023-11-07T08:00:50.962Z,3.74
2023-11-07T08:03:19.963Z,3.99
2023-11-07T08:05:48.874Z,5.36
2023-11-07T08:08:19.201Z,7.25
2023-11-07T08:10:49.917Z,8.46
2023-11-07T08:13:19.943Z,8.97
2023-11-07T08:15:51.304Z,9.57
2023-11-07T08:18:20.374Z,9.23
2023-11-07T08:20:51.535Z,9.77
2023-11-07T08:23:22.172Z,10.88
2023-11-07T08:25:51.471Z,12.22
2023-11-07T08:28:19.944Z,12.68
2023-11-07T08:30:48.337Z,12.78
2023-11-07T08:33:16.934Z,12.89
2023-11-07T08:35:45.479Z,14.23
2023-11-07T08:38:14.022Z,14.67
2023-11-07T08:40:43.701Z,14.79
2023-11-07T08:43:13.758Z,13.63
2023-11-07T08:45:42.435Z,12.29
2023-11-07T08:48:11.591Z,11.89
2023-11-07T08:50:40.382Z,10.56
2023-11-07T08:53:08.823Z,10.39
2023-11-07T08:55:37.782Z,10.29
2023-11-07T08:58:07.813Z,11.08
2023-11-07T09:00:36.220Z,10.75
2023-11-07T09:03:05.431Z,10.70
2023-11-07T09:05:34.095Z,11.69
2023-11-07T09:08:05.670Z,11.03
2023-11-07T09:10:34.095Z,11.15
2023-11-07T09:13:04.094Z,10.44
2023-11-07T09:15:33.868Z,9.51
2023-11-07T09:18:02.349Z,8.35
2023-11-07T09:20:30.983Z,7.75
2023-11-07T09:22:59.328Z,7.48
2023-11-07T09:25:27.748Z,7.52
2023-11-07T09:27:56.097Z,7.65
2023-11-07T09:30:24.502Z,7.73
2023-11-07T09:32:54.730Z,7.99
2023-11-07T09:35:24.125Z,8.17
2023-11-07T09:37:52.600Z,8.90
2023-11-07T09:40:24.401Z,9.03
2023-11-07T09:42:55.851Z,9.15
2023-11-07T09:45:25.221Z,9.34
2023-11-07T09:47:57.421Z,8.88
2023-11-07T09:50:26.425Z,8.09
2023-11-07T09:52:56.293Z,7.86
2023-11-07T09:55:31.061Z,7.87
2023-11-07T09:58:15.039Z,8.06
2023-11-07T10:00:46.701Z,8.38
2023-11-07T10:03:18.028Z,8.58
2023-11-07T10:05:49.655Z,8.66
2023-11-07T10:08:18.792Z,8.65
2023-11-07T10:11:11.720Z,8.66
2023-11-07T10:13:41.215Z,8.32
2023-11-07T10:18:51.503Z,8.37
2023-11-07T10:21:33.066Z,8.46
2023-11-07T10:24:01.818Z,8.71
2023-11-07T10:26:31.448Z,8.86
2023-11-07T10:29:17.851Z,8.41
2023-11-07T10:32:02.047Z,8.53
2023-11-07T10:34:32.822Z,8.56
2023-11-07T10:37:02.099Z,8.67
2023-11-07T10:39:31.301Z,8.59
2023-11-07T10:42:17.991Z,8.46
2023-11-07T10:44:49.575Z,8.55
2023-11-07T10:47:21.483Z,8.65
2023-11-07T10:49:57.367Z,8.74
2023-11-07T10:52:26.006Z,8.77
2023-11-07T10:54:55.166Z,8.85
2023-11-07T10:57:28.143Z,9.13
2023-11-07T11:00:06.925Z,9.66
2023-11-07T11:02:35.856Z,10.37
2023-11-07T11:05:12.238Z,10.76
2023-11-07T11:07:50.684Z,11.33
2023-11-07T11:10:23.327Z,10.91
2023-11-07T11:12:52.977Z,10.55
2023-11-07T11:15:21.811Z,10.30
2023-11-07T11:17:59.140Z,10.30
2023-11-07T11:20:45.557Z,10.43
2023-11-07T11:23:30.856Z,10.36
2023-11-07T11:26:20.150Z,10.27
2023-11-07T11:28:48.750Z,10.43
2023-11-07T11:31:22.003Z,10.60
2023-11-07T11:33:52.598Z,10.57
2023-11-07T11:36:40.716Z,10.74
2023-11-07T11:39:47.584Z,10.63
2023-11-07T11:42:17.477Z,10.56
2023-11-07T11:44:46.469Z,10.26
2023-11-07T11:47:53.167Z,10.16
2023-11-07T11:50:22.458Z,9.90
2023-11-07T11:52:55.378Z,10.04
2023-11-07T11:55:23.764Z,10.17
2023-11-07T11:58:20.517Z,10.02
2023-11-07T12:00:53.211Z,9.83
2023-11-07T12:03:22.204Z,9.72
2023-11-07T12:06:05.308Z,9.65
2023-11-07T12:08:42.433Z,9.72
2023-11-07T12:11:12.014Z,10.80
2023-11-07T12:13:42.193Z,13.28
2023-11-07T12:16:19.846Z,14.26
2023-11-07T12:18:51.930Z,13.49
2023-11-07T12:21:29.200Z,14.26
2023-11-07T12:24:02.749Z,13.68
2023-11-07T12:26:42.870Z,12.74
2023-11-07T12:29:11.439Z,11.47
2023-11-07T12:31:41.295Z,10.68
2023-11-07T12:34:10.510Z,10.36
2023-11-07T12:36:41.582Z,10.30
2023-11-07T12:39:13.591Z,10.17
2023-11-07T12:41:42.280Z,10.15
2023-11-07T12:44:17.475Z,10.14
2023-11-07T12:46:47.168Z,9.97
2023-11-07T12:49:19.680Z,9.91
2023-11-07T12:51:48.769Z,9.78
2023-11-07T12:54:26.908Z,9.79
2023-11-07T12:56:55.601Z,9.90
2023-11-07T12:59:24.141Z,9.91
2023-11-07T13:01:55.602Z,9.76
2023-11-07T13:04:24.288Z,9.71
2023-11-07T13:06:55.532Z,9.72
2023-11-07T13:09:32.025Z,9.72
2023-11-07T13:12:11.577Z,9.69
2023-11-07T13:14:41.315Z,9.76
2023-11-07T13:17:12.868Z,9.75
2023-11-07T13:19:41.521Z,9.88
2023-11-07T13:22:11.135Z,9.85
2023-11-07T13:24:41.143Z,9.95
2023-11-07T13:27:09.668Z,9.88
2023-11-07T13:29:38.033Z,10.04
2023-11-07T13:32:07.553Z,10.01
2023-11-07T13:34:36.588Z,10.19
2023-11-07T13:37:06.389Z,10.23
2023-11-07T13:39:34.727Z,10.25
2023-11-07T13:42:05.853Z,10.36
2023-11-07T13:44:35.406Z,10.37
2023-11-07T13:47:04.160Z,10.48
2023-11-07T13:49:33.665Z,10.39
2023-11-07T13:52:03.435Z,11.10
2023-11-07T13:54:31.972Z,12.55
2023-11-07T13:57:00.909Z,13.19
2023-11-07T13:59:32.405Z,12.79
2023-11-07T14:02:00.999Z,11.44
2023-11-07T14:04:29.523Z,10.71
2023-11-07T14:06:57.932Z,10.48
2023-11-07T14:09:26.343Z,10.40
2023-11-07T14:11:54.774Z,10.08
2023-11-07T14:14:23.492Z,9.79
2023-11-07T14:16:54.574Z,9.73
2023-11-07T14:19:23.523Z,9.63
2023-11-07T14:21:52.029Z,9.52
2023-11-07T14:24:20.453Z,9.54
2023-11-07T14:26:49.096Z,9.59
2023-11-07T14:29:34.106Z,9.58
2023-11-07T14:32:09.781Z,9.46
2023-11-07T14:34:38.286Z,9.33
2023-11-07T14:37:06.883Z,9.29
2023-11-07T14:39:35.628Z,9.26
2023-11-07T14:42:07.538Z,9.24
2023-11-07T14:44:35.903Z,9.24
2023-11-07T14:47:04.510Z,9.18
2023-11-07T14:49:35.179Z,9.13
2023-11-07T14:52:07.926Z,9.12
2023-11-07T14:54:37.604Z,9.10
2023-11-07T14:57:09.538Z,9.05
2023-11-07T14:59:38.386Z,8.93
2023-11-07T15:02:14.705Z,8.34
2023-11-07T15:04:52.367Z,8.00
2023-11-07T15:07:20.828Z,7.84
2023-11-07T15:09:49.146Z,7.70
2023-11-07T15:12:17.636Z,7.60
2023-11-07T15:14:47.208Z,7.52
2023-11-07T15:17:15.632Z,7.24
2023-11-07T15:19:44.070Z,6.92
2023-11-07T15:22:14.004Z,6.71
2023-11-07T15:24:42.849Z,6.59
2023-11-07T15:27:11.311Z,6.50
2023-11-07T15:29:39.777Z,6.46
2023-11-07T15:32:11.780Z,6.42
2023-11-07T15:34:40.245Z,6.40
2023-11-07T15:37:08.796Z,6.41
2023-11-07T15:39:38.565Z,6.40
2023-11-07T15:42:08.836Z,6.40
2023-11-07T15:44:37.360Z,6.36
2023-11-07T15:47:06.242Z,6.32
2023-11-07T15:49:34.776Z,6.31
2023-11-07T15:52:03.491Z,6.32
2023-11-07T15:54:32.865Z,6.29
2023-11-07T15:57:02.638Z,6.26
2023-11-07T15:59:31.584Z,6.25
2023-11-07T16:02:00.457Z,6.24
2023-11-07T16:04:29.274Z,6.22
2023-11-07T16:06:57.894Z,6.19
2023-11-07T16:09:26.616Z,6.25
2023-11-07T16:11:55.123Z,6.33
2023-11-07T16:14:25.176Z,6.38
2023-11-07T16:16:53.558Z,6.46
2023-11-07T16:19:22.796Z,6.45
2023-11-07T16:21:55.548Z,6.47
2023-11-07T16:24:24.513Z,6.38
2023-11-07T16:26:53.147Z,6.36
2023-11-07T16:29:23.232Z,6.39
2023-11-07T16:31:53.689Z,6.34
2023-11-07T16:34:23.358Z,6.29
2023-11-07T16:36:52.609Z,6.27
2023-11-07T16:39:21.431Z,6.32
2023-11-07T16:41:50.257Z,6.32
2023-11-07T16:44:18.842Z,6.28
2023-11-07T16:46:47.464Z,6.28
2023-11-07T16:49:18.275Z,6.39
2023-11-07T16:51:46.701Z,6.47
2023-11-07T16:54:15.109Z,6.41
2023-11-07T16:56:43.550Z,6.43
2023-11-07T16:59:12.645Z,6.49
2023-11-07T17:01:41.106Z,6.47
2023-11-07T17:04:10.391Z,6.45
2023-11-07T17:06:40.673Z,6.30
2023-11-07T17:09:10.443Z,6.26
2023-11-07T17:11:39.678Z,6.28
2023-11-07T17:14:11.038Z,6.25
2023-11-07T17:16:40.174Z,6.30
2023-11-07T17:19:08.844Z,6.28
2023-11-07T17:21:37.249Z,6.26
2023-11-07T17:24:08.495Z,6.19
2023-11-07T17:26:37.171Z,6.20
2023-11-07T17:29:07.953Z,6.18
2023-11-07T17:31:36.462Z,6.17
2023-11-07T17:34:08.552Z,6.28
2023-11-07T17:36:37.428Z,6.26
2023-11-07T17:39:15.019Z,6.27
2023-11-07T17:41:45.843Z,6.32
2023-11-07T17:44:15.764Z,6.29
2023-11-07T17:46:45.992Z,6.30
2023-11-07T17:49:17.201Z,6.30
2023-11-07T17:51:46.387Z,6.34
2023-11-07T17:54:17.325Z,6.30
2023-11-07T17:56:45.867Z,6.33
2023-11-07T17:59:14.474Z,6.20
2023-11-07T18:01:43.191Z,6.15
2023-11-07T18:04:11.741Z,6.08
2023-11-07T18:06:42.340Z,6.09
2023-11-07T18:09:13.996Z,6.10
2023-11-07T18:11:46.309Z,6.08
2023-11-07T18:14:15.434Z,6.05
2023-11-07T18:16:44.629Z,6.05
2023-11-07T18:19:13.422Z,6.02
2023-11-07T18:21:44.866Z,6.08
2023-11-07T18:24:13.494Z,6.05
2023-11-07T18:26:49.492Z,6.02
2023-11-07T18:29:18.178Z,6.08
2023-11-07T18:31:47.072Z,6.03
2023-11-07T18:34:22.633Z,6.01
2023-11-07T18:37:01.056Z,6.02
2023-11-07T18:39:30.420Z,6.02
2023-11-07T18:42:01.133Z,6.02
2023-11-07T18:44:35.357Z,6.02
2023-11-07T18:47:04.357Z,6.08
2023-11-07T18:49:33.597Z,6.08
2023-11-07T18:52:03.035Z,6.02
2023-11-07T18:54:31.806Z,6.05
2023-11-07T18:57:02.841Z,6.09
2023-11-07T18:59:36.964Z,6.02
2023-11-07T19:02:07.826Z,6.08
2023-11-07T19:04:38.384Z,6.05
2023-11-07T19:07:08.176Z,5.95
2023-11-07T19:09:37.568Z,5.86
2023-11-07T19:12:08.534Z,5.77
2023-11-07T19:14:39.785Z,5.63
2023-11-07T19:17:08.853Z,5.60
2023-11-07T19:19:38.065Z,5.65
2023-11-07T19:22:06.682Z,5.65
2023-11-07T19:24:35.394Z,5.62
2023-11-07T19:27:04.699Z,5.59
2023-11-07T19:29:34.862Z,5.55
2023-11-07T19:32:04.044Z,5.58
2023-11-07T19:34:34.575Z,5.62
2023-11-07T19:37:03.703Z,5.59
2023-11-07T19:39:35.573Z,5.60
2023-11-07T19:42:05.070Z,5.65
2023-11-07T19:44:36.283Z,5.57
2023-11-07T19:47:05.117Z,5.51
2023-11-07T19:49:33.893Z,5.50
2023-11-07T19:52:03.589Z,5.52
2023-11-07T19:54:32.157Z,5.52
2023-11-07T19:57:01.448Z,5.47
2023-11-07T19:59:29.771Z,5.45
2023-11-07T20:02:00.091Z,5.36
2023-11-07T20:04:28.723Z,5.35
2023-11-07T20:06:57.229Z,5.35
2023-11-07T20:09:25.634Z,5.28
2023-11-07T20:11:54.017Z,5.22
2023-11-07T20:14:23.107Z,5.16
2023-11-07T20:16:55.449Z,5.11
2023-11-07T20:19:26.405Z,5.00
2023-11-07T20:21:54.773Z,5.00
2023-11-07T20:24:23.125Z,4.92
2023-11-07T20:26:51.453Z,4.86
2023-11-07T20:29:22.066Z,4.84
2023-11-07T20:31:51.800Z,4.81
2023-11-07T20:34:20.326Z,4.77
2023-11-07T20:36:50.122Z,4.74
2023-11-07T20:39:19.735Z,4.74
2023-11-07T20:41:48.222Z,4.70
2023-11-07T20:44:17.067Z,4.64
2023-11-07T20:46:45.757Z,4.66
2023-11-07T20:49:14.326Z,4.67
2023-11-07T20:51:42.993Z,4.63
2023-11-07T20:54:13.250Z,4.63
2023-11-07T20:56:41.566Z,4.58
2023-11-07T20:59:13.211Z,4.63
2023-11-07T21:01:44.456Z,4.74
2023-11-07T21:04:13.285Z,4.74
2023-11-07T21:06:41.628Z,4.67
2023-11-07T21:09:10.040Z,4.70
2023-11-07T21:11:43.357Z,4.65
2023-11-07T21:14:11.794Z,4.59
2023-11-07T21:16:40.158Z,4.55
2023-11-07T21:19:11.891Z,4.50
2023-11-07T21:21:40.286Z,4.50
2023-11-07T21:24:09.218Z,4.56
2023-11-07T21:26:38.911Z,4.62
2023-11-07T21:29:08.317Z,4.59
2023-11-07T21:31:37.398Z,4.59
2023-11-07T21:34:07.768Z,4.54
2023-11-07T21:36:36.304Z,4.53
2023-11-07T21:39:07.654Z,4.53
2023-11-07T21:41:36.137Z,4.56
2023-11-07T21:44:06.149Z,4.59
2023-11-07T21:46:35.024Z,4.60
2023-11-07T21:49:03.601Z,4.57
2023-11-07T21:51:32.842Z,4.60
2023-11-07T21:54:03.227Z,4.61
2023-11-07T21:56:32.663Z,4.62
2023-11-07T21:59:01.801Z,4.61
2023-11-07T22:01:34.357Z,4.56
2023-11-07T22:04:02.924Z,4.48
2023-11-07T22:06:32.738Z,4.51
2023-11-07T22:09:01.226Z,4.42
2023-11-07T22:11:29.517Z,4.36
2023-11-07T22:13:58.256Z,4.37
2023-11-07T22:16:27.661Z,4.39
2023-11-07T22:18:57.435Z,4.39
2023-11-07T22:21:26.704Z,4.45
2023-11-07T22:23:55.142Z,4.47
2023-11-07T22:26:23.548Z,4.50
2023-11-07T22:28:52.233Z,4.42
2023-11-07T22:31:21.224Z,4.52
2023-11-07T22:33:49.820Z,4.47
2023-11-07T22:36:19.706Z,4.39
2023-11-07T22:38:48.590Z,4.47
2023-11-07T22:41:17.497Z,4.53
2023-11-07T22:43:45.922Z,4.47
2023-11-07T22:46:14.248Z,4.43
2023-11-07T22:48:44.717Z,4.41
2023-11-07T22:51:13.139Z,4.44
2023-11-07T22:53:43.092Z,4.39
2023-11-07T22:56:12.133Z,4.47
2023-11-07T22:58:40.602Z,4.48
2023-11-07T23:01:09.817Z,4.46
2023-11-07T23:03:39.674Z,4.45
2023-11-07T23:06:09.213Z,4.42
2023-11-07T23:08:39.200Z,4.39
2023-11-07T23:11:09.491Z,4.33
2023-11-07T23:13:38.399Z,4.38
2023-11-07T23:16:08.414Z,4.37
2023-11-07T23:18:37.234Z,4.34
2023-11-07T23:21:06.664Z,4.34
2023-11-07T23:23:35.993Z,4.35
2023-11-07T23:26:05.064Z,4.42
2023-11-07T23:28:34.910Z,4.36
2023-11-07T23:31:03.790Z,4.37
2023-11-07T23:33:32.340Z,4.40
2023-11-07T23:36:01.414Z,4.39
2023-11-07T23:38:29.738Z,4.36
2023-11-07T23:40:58.334Z,4.40
2023-11-07T23:43:28.006Z,4.45
2023-11-07T23:45:57.981Z,4.57
2023-11-07T23:48:27.724Z,4.49
2023-11-07T23:50:56.455Z,4.45
2023-11-07T23:53:25.278Z,4.44
2023-11-07T23:55:53.808Z,4.37
2023-11-07T23:58:22.536Z,4.30
